sensor_id;sensor_type;location;lat;lon;timestamp;temperature;humidity
24814;DHT22;12904;50.088;11.414;2022-08-04T00:01:42;18.90;99.90
24814;DHT22;12904;50.088;11.414;2022-08-04T00:04:17;18.80;99.90
24814;DHT22;12904;50.088;11.414;2022-08-04T00:07:10;18.70;99.90
24814;DHT22;12904;50.088;11.414;2022-08-04T00:09:42;18.60;99.90
24814;DHT22;12904;50.088;11.414;2022-08-04T00:12:10;18.50;99.90
24814;DHT22;12904;50.088;11.414;2022-08-04T00:14:47;18.40;99.90
24814;DHT22;12904;50.088;11.414;2022-08-04T00:17:13;18.40;99.90
24814;DHT22;12904;50.088;11.414;2022-08-04T00:19:47;18.40;99.90
24814;DHT22;12904;50.088;11.414;2022-08-04T00:22:13;18.40;99.90
24814;DHT22;12904;50.088;11.414;2022-08-04T00:24:41;18.40;99.90
24814;DHT22;12904;50.088;11.414;2022-08-04T00:27:07;18.40;99.90
24814;DHT22;12904;50.088;11.414;2022-08-04T00:29:34;18.30;99.90
24814;DHT22;12904;50.088;11.414;2022-08-04T00:32:01;18.30;99.90
24814;DHT22;12904;50.088;11.414;2022-08-04T00:34:28;18.30;99.90
24814;DHT22;12904;50.088;11.414;2022-08-04T00:36:55;18.30;99.90
24814;DHT22;12904;50.088;11.414;2022-08-04T00:39:21;18.30;99.90
24814;DHT22;12904;50.088;11.414;2022-08-04T00:47:34;18.40;99.90
24814;DHT22;12904;50.088;11.414;2022-08-04T00:51:05;18.30;99.90
24814;DHT22;12904;50.088;11.414;2022-08-04T00:53:07;18.30;99.90
24814;DHT22;12904;50.088;11.414;2022-08-04T01:01:01;18.20;99.90
24814;DHT22;12904;50.088;11.414;2022-08-04T01:06:42;18.00;99.90
24814;DHT22;12904;50.088;11.414;2022-08-04T01:30:42;17.40;99.90
24814;DHT22;12904;50.088;11.414;2022-08-04T01:33:12;17.30;99.90
24814;DHT22;12904;50.088;11.414;2022-08-04T01:35:54;17.30;99.90
24814;DHT22;12904;50.088;11.414;2022-08-04T01:40:51;17.30;99.90
24814;DHT22;12904;50.088;11.414;2022-08-04T01:43:19;17.20;99.90
24814;DHT22;12904;50.088;11.414;2022-08-04T01:45:50;17.20;99.90
24814;DHT22;12904;50.088;11.414;2022-08-04T01:48:17;17.20;99.90
24814;DHT22;12904;50.088;11.414;2022-08-04T01:50:51;17.20;99.90
24814;DHT22;12904;50.088;11.414;2022-08-04T01:53:19;17.20;99.90
24814;DHT22;12904;50.088;11.414;2022-08-04T01:55:50;17.20;99.90
24814;DHT22;12904;50.088;11.414;2022-08-04T01:58:19;17.20;99.90
24814;DHT22;12904;50.088;11.414;2022-08-04T02:01:04;17.20;99.90
24814;DHT22;12904;50.088;11.414;2022-08-04T02:03:31;17.10;99.90
24814;DHT22;12904;50.088;11.414;2022-08-04T02:11:21;16.90;99.90
24814;DHT22;12904;50.088;11.414;2022-08-04T02:13:55;16.90;99.90
24814;DHT22;12904;50.088;11.414;2022-08-04T02:16:42;16.90;99.90
24814;DHT22;12904;50.088;11.414;2022-08-04T02:19:29;16.90;99.90
24814;DHT22;12904;50.088;11.414;2022-08-04T02:22:05;16.90;99.90
24814;DHT22;12904;50.088;11.414;2022-08-04T02:24:31;16.90;99.90
24814;DHT22;12904;50.088;11.414;2022-08-04T02:27:00;16.90;99.90
24814;DHT22;12904;50.088;11.414;2022-08-04T02:29:52;16.90;99.90
24814;DHT22;12904;50.088;11.414;2022-08-04T02:32:25;16.90;99.90
24814;DHT22;12904;50.088;11.414;2022-08-04T02:35:14;16.90;99.90
24814;DHT22;12904;50.088;11.414;2022-08-04T02:37:47;16.90;99.90
24814;DHT22;12904;50.088;11.414;2022-08-04T02:40:18;16.90;99.90
24814;DHT22;12904;50.088;11.414;2022-08-04T02:42:45;16.90;99.90
24814;DHT22;12904;50.088;11.414;2022-08-04T02:45:11;16.80;99.90
24814;DHT22;12904;50.088;11.414;2022-08-04T02:47:38;16.80;99.90
24814;DHT22;12904;50.088;11.414;2022-08-04T02:50:04;16.90;99.90
24814;DHT22;12904;50.088;11.414;2022-08-04T02:52:33;16.80;99.90
24814;DHT22;12904;50.088;11.414;2022-08-04T02:55:00;16.80;99.90
24814;DHT22;12904;50.088;11.414;2022-08-04T02:57:29;16.90;99.90
24814;DHT22;12904;50.088;11.414;2022-08-04T03:00:06;16.80;99.90
24814;DHT22;12904;50.088;11.414;2022-08-04T03:17:27;16.70;99.90
24814;DHT22;12904;50.088;11.414;2022-08-04T03:31:16;16.50;99.90
24814;DHT22;12904;50.088;11.414;2022-08-04T03:36:47;16.40;99.90
24814;DHT22;12904;50.088;11.414;2022-08-04T03:40:16;16.20;99.90
24814;DHT22;12904;50.088;11.414;2022-08-04T03:42:58;16.10;99.90
24814;DHT22;12904;50.088;11.414;2022-08-04T03:45:56;15.90;99.90
24814;DHT22;12904;50.088;11.414;2022-08-04T03:48:49;15.90;99.90
24814;DHT22;12904;50.088;11.414;2022-08-04T03:51:33;15.80;99.90
24814;DHT22;12904;50.088;11.414;2022-08-04T04:00:11;15.80;99.90
24814;DHT22;12904;50.088;11.414;2022-08-04T04:02:48;15.80;99.90
24814;DHT22;12904;50.088;11.414;2022-08-04T04:25:02;15.70;99.90
24814;DHT22;12904;50.088;11.414;2022-08-04T04:30:24;15.70;99.90
24814;DHT22;12904;50.088;11.414;2022-08-04T04:35:52;15.80;99.90
24814;DHT22;12904;50.088;11.414;2022-08-04T04:38:29;15.90;99.90
24814;DHT22;12904;50.088;11.414;2022-08-04T04:41:17;15.90;99.90
24814;DHT22;12904;50.088;11.414;2022-08-04T04:51:54;16.40;99.90
24814;DHT22;12904;50.088;11.414;2022-08-04T04:54:44;16.50;99.90
24814;DHT22;12904;50.088;11.414;2022-08-04T04:57:19;16.60;99.90
24814;DHT22;12904;50.088;11.414;2022-08-04T05:00:00;16.70;99.90
24814;DHT22;12904;50.088;11.414;2022-08-04T05:16:04;18.60;99.90
24814;DHT22;12904;50.088;11.414;2022-08-04T05:18:34;19.80;99.90
24814;DHT22;12904;50.088;11.414;2022-08-04T05:21:38;21.20;99.90
24814;DHT22;12904;50.088;11.414;2022-08-04T05:24:08;22.80;99.90
24814;DHT22;12904;50.088;11.414;2022-08-04T05:26:40;24.10;94.20
24814;DHT22;12904;50.088;11.414;2022-08-04T05:29:17;25.00;85.10
24814;DHT22;12904;50.088;11.414;2022-08-04T05:31:50;25.80;81.10
24814;DHT22;12904;50.088;11.414;2022-08-04T05:34:31;26.90;73.80
24814;DHT22;12904;50.088;11.414;2022-08-04T05:37:00;27.70;68.80
24814;DHT22;12904;50.088;11.414;2022-08-04T05:39:31;28.60;66.00
24814;DHT22;12904;50.088;11.414;2022-08-04T05:41:58;29.30;63.80
24814;DHT22;12904;50.088;11.414;2022-08-04T05:44:25;29.90;60.30
24814;DHT22;12904;50.088;11.414;2022-08-04T05:46:55;30.40;58.40
24814;DHT22;12904;50.088;11.414;2022-08-04T05:49:26;30.80;56.50
24814;DHT22;12904;50.088;11.414;2022-08-04T05:51:56;30.70;56.00
24814;DHT22;12904;50.088;11.414;2022-08-04T05:54:23;30.90;55.40
24814;DHT22;12904;50.088;11.414;2022-08-04T05:56:50;31.30;54.70
24814;DHT22;12904;50.088;11.414;2022-08-04T05:59:18;32.00;53.30
24814;DHT22;12904;50.088;11.414;2022-08-04T06:01:45;32.70;51.50
24814;DHT22;12904;50.088;11.414;2022-08-04T06:04:12;33.40;50.80
24814;DHT22;12904;50.088;11.414;2022-08-04T06:06:41;33.80;49.70
24814;DHT22;12904;50.088;11.414;2022-08-04T06:09:08;34.20;48.10
24814;DHT22;12904;50.088;11.414;2022-08-04T06:11:37;34.90;47.50
24814;DHT22;12904;50.088;11.414;2022-08-04T06:14:07;35.30;46.50
24814;DHT22;12904;50.088;11.414;2022-08-04T06:16:38;35.70;45.10
24814;DHT22;12904;50.088;11.414;2022-08-04T06:19:10;35.60;44.60
24814;DHT22;12904;50.088;11.414;2022-08-04T06:21:39;35.80;44.30
24814;DHT22;12904;50.088;11.414;2022-08-04T06:24:08;35.60;44.10
24814;DHT22;12904;50.088;11.414;2022-08-04T06:26:37;35.80;44.50
24814;DHT22;12904;50.088;11.414;2022-08-04T06:29:05;36.20;43.50
24814;DHT22;12904;50.088;11.414;2022-08-04T06:31:40;36.60;43.10
24814;DHT22;12904;50.088;11.414;2022-08-04T06:34:09;36.50;42.70
24814;DHT22;12904;50.088;11.414;2022-08-04T06:36:37;36.40;42.50
24814;DHT22;12904;50.088;11.414;2022-08-04T06:39:06;36.60;43.40
24814;DHT22;12904;50.088;11.414;2022-08-04T06:41:33;37.30;42.40
24814;DHT22;12904;50.088;11.414;2022-08-04T06:44:07;37.00;41.90
24814;DHT22;12904;50.088;11.414;2022-08-04T06:46:34;37.20;41.90
24814;DHT22;12904;50.088;11.414;2022-08-04T06:49:01;37.00;41.50
24814;DHT22;12904;50.088;11.414;2022-08-04T06:51:30;37.70;40.70
24814;DHT22;12904;50.088;11.414;2022-08-04T06:53:57;37.70;40.90
24814;DHT22;12904;50.088;11.414;2022-08-04T06:56:24;37.30;40.80
24814;DHT22;12904;50.088;11.414;2022-08-04T06:58:51;37.50;41.60
24814;DHT22;12904;50.088;11.414;2022-08-04T07:01:20;37.80;41.50
24814;DHT22;12904;50.088;11.414;2022-08-04T07:03:47;37.90;40.70
24814;DHT22;12904;50.088;11.414;2022-08-04T07:06:14;38.30;40.50
24814;DHT22;12904;50.088;11.414;2022-08-04T07:08:40;38.70;40.90
24814;DHT22;12904;50.088;11.414;2022-08-04T07:11:06;39.00;39.40
24814;DHT22;12904;50.088;11.414;2022-08-04T07:13:33;39.80;38.50
24814;DHT22;12904;50.088;11.414;2022-08-04T07:16:00;39.90;37.10
24814;DHT22;12904;50.088;11.414;2022-08-04T07:18:27;40.00;37.80
24814;DHT22;12904;50.088;11.414;2022-08-04T07:20:54;40.10;37.00
24814;DHT22;12904;50.088;11.414;2022-08-04T07:23:24;38.70;36.00
24814;DHT22;12904;50.088;11.414;2022-08-04T07:25:53;38.20;36.70
24814;DHT22;12904;50.088;11.414;2022-08-04T07:28:24;37.50;38.30
24814;DHT22;12904;50.088;11.414;2022-08-04T07:30:52;37.70;39.00
24814;DHT22;12904;50.088;11.414;2022-08-04T07:33:18;38.40;37.50
24814;DHT22;12904;50.088;11.414;2022-08-04T07:35:50;38.80;36.30
24814;DHT22;12904;50.088;11.414;2022-08-04T07:38:16;39.10;36.60
24814;DHT22;12904;50.088;11.414;2022-08-04T07:40:42;39.30;36.20
24814;DHT22;12904;50.088;11.414;2022-08-04T07:43:09;39.10;35.40
24814;DHT22;12904;50.088;11.414;2022-08-04T07:45:35;38.30;35.90
24814;DHT22;12904;50.088;11.414;2022-08-04T07:48:02;38.60;36.70
24814;DHT22;12904;50.088;11.414;2022-08-04T07:50:32;38.90;36.10
24814;DHT22;12904;50.088;11.414;2022-08-04T07:52:58;39.00;35.00
24814;DHT22;12904;50.088;11.414;2022-08-04T07:55:25;38.80;35.60
24814;DHT22;12904;50.088;11.414;2022-08-04T07:57:52;38.50;35.40
24814;DHT22;12904;50.088;11.414;2022-08-04T08:00:17;38.30;36.00
24814;DHT22;12904;50.088;11.414;2022-08-04T08:02:47;38.20;36.20
24814;DHT22;12904;50.088;11.414;2022-08-04T08:05:14;38.20;36.00
24814;DHT22;12904;50.088;11.414;2022-08-04T08:07:45;37.90;36.60
24814;DHT22;12904;50.088;11.414;2022-08-04T08:10:14;38.30;36.60
24814;DHT22;12904;50.088;11.414;2022-08-04T08:12:41;39.50;36.50
24814;DHT22;12904;50.088;11.414;2022-08-04T08:15:09;39.90;33.80
24814;DHT22;12904;50.088;11.414;2022-08-04T08:17:35;39.90;34.60
24814;DHT22;12904;50.088;11.414;2022-08-04T08:20:01;40.10;34.30
24814;DHT22;12904;50.088;11.414;2022-08-04T08:22:29;40.70;33.40
24814;DHT22;12904;50.088;11.414;2022-08-04T08:24:55;41.50;33.20
24814;DHT22;12904;50.088;11.414;2022-08-04T08:27:21;43.00;32.80
24814;DHT22;12904;50.088;11.414;2022-08-04T08:29:48;43.80;30.30
24814;DHT22;12904;50.088;11.414;2022-08-04T08:32:14;44.90;30.40
24814;DHT22;12904;50.088;11.414;2022-08-04T08:34:41;44.90;29.30
24814;DHT22;12904;50.088;11.414;2022-08-04T08:37:29;44.50;29.60
24814;DHT22;12904;50.088;11.414;2022-08-04T08:40:42;42.60;30.00
24814;DHT22;12904;50.088;11.414;2022-08-04T08:43:04;41.90;31.10
24814;DHT22;12904;50.088;11.414;2022-08-04T09:11:07;45.80;29.10
24814;DHT22;12904;50.088;11.414;2022-08-04T09:13:56;45.30;28.60
24814;DHT22;12904;50.088;11.414;2022-08-04T09:19:16;44.00;29.70
24814;DHT22;12904;50.088;11.414;2022-08-04T09:21:56;44.60;29.90
24814;DHT22;12904;50.088;11.414;2022-08-04T09:27:15;44.00;29.40
24814;DHT22;12904;50.088;11.414;2022-08-04T09:46:56;41.90;32.30
24814;DHT22;12904;50.088;11.414;2022-08-04T09:49:46;42.50;31.60
24814;DHT22;12904;50.088;11.414;2022-08-04T10:00:50;41.90;30.10
24814;DHT22;12904;50.088;11.414;2022-08-04T10:03:18;41.20;31.40
24814;DHT22;12904;50.088;11.414;2022-08-04T10:14:18;40.70;32.80
24814;DHT22;12904;50.088;11.414;2022-08-04T10:17:11;39.60;33.30
24814;DHT22;12904;50.088;11.414;2022-08-04T10:19:40;40.40;34.00
24814;DHT22;12904;50.088;11.414;2022-08-04T10:27:45;40.60;32.90
24814;DHT22;12904;50.088;11.414;2022-08-04T10:30:16;41.10;32.90
24814;DHT22;12904;50.088;11.414;2022-08-04T10:35:54;42.80;30.10
24814;DHT22;12904;50.088;11.414;2022-08-04T10:38:27;43.00;29.80
24814;DHT22;12904;50.088;11.414;2022-08-04T10:43:49;42.30;30.00
24814;DHT22;12904;50.088;11.414;2022-08-04T10:46:23;41.10;31.40
24814;DHT22;12904;50.088;11.414;2022-08-04T10:49:01;40.00;32.40
24814;DHT22;12904;50.088;11.414;2022-08-04T10:54:40;39.80;32.60
24814;DHT22;12904;50.088;11.414;2022-08-04T10:57:13;39.70;33.40
24814;DHT22;12904;50.088;11.414;2022-08-04T10:59:42;39.80;32.60
24814;DHT22;12904;50.088;11.414;2022-08-04T11:05:04;38.90;34.50
24814;DHT22;12904;50.088;11.414;2022-08-04T11:07:33;38.70;33.30
24814;DHT22;12904;50.088;11.414;2022-08-04T11:10:01;38.70;34.50
24814;DHT22;12904;50.088;11.414;2022-08-04T11:12:28;39.40;35.10
24814;DHT22;12904;50.088;11.414;2022-08-04T11:15:00;39.90;33.50
24814;DHT22;12904;50.088;11.414;2022-08-04T11:17:33;40.50;33.60
24814;DHT22;12904;50.088;11.414;2022-08-04T11:22:35;42.00;30.50
24814;DHT22;12904;50.088;11.414;2022-08-04T11:27:54;41.00;31.00
24814;DHT22;12904;50.088;11.414;2022-08-04T11:30:30;39.50;31.70
24814;DHT22;12904;50.088;11.414;2022-08-04T11:36:13;37.60;33.90
24814;DHT22;12904;50.088;11.414;2022-08-04T11:41:18;37.70;34.70
24814;DHT22;12904;50.088;11.414;2022-08-04T11:43:50;38.20;34.50
24814;DHT22;12904;50.088;11.414;2022-08-04T11:46:25;38.50;33.70
24814;DHT22;12904;50.088;11.414;2022-08-04T11:49:00;38.40;33.00
24814;DHT22;12904;50.088;11.414;2022-08-04T11:51:27;38.50;34.40
24814;DHT22;12904;50.088;11.414;2022-08-04T11:53:54;38.20;33.90
24814;DHT22;12904;50.088;11.414;2022-08-04T11:56:20;38.20;34.70
24814;DHT22;12904;50.088;11.414;2022-08-04T11:58:46;38.40;34.00
24814;DHT22;12904;50.088;11.414;2022-08-04T12:01:32;38.50;33.10
24814;DHT22;12904;50.088;11.414;2022-08-04T12:04:27;38.80;33.80
24814;DHT22;12904;50.088;11.414;2022-08-04T12:07:06;39.20;34.30
24814;DHT22;12904;50.088;11.414;2022-08-04T12:10:02;39.10;33.00
24814;DHT22;12904;50.088;11.414;2022-08-04T12:12:43;38.90;32.70
24814;DHT22;12904;50.088;11.414;2022-08-04T12:15:27;38.30;33.20
24814;DHT22;12904;50.088;11.414;2022-08-04T12:20:57;38.40;33.20
24814;DHT22;12904;50.088;11.414;2022-08-04T12:23:28;38.30;33.00
24814;DHT22;12904;50.088;11.414;2022-08-04T12:25:57;38.60;32.80
24814;DHT22;12904;50.088;11.414;2022-08-04T12:28:31;38.60;33.70
24814;DHT22;12904;50.088;11.414;2022-08-04T12:31:04;38.30;32.70
24814;DHT22;12904;50.088;11.414;2022-08-04T12:33:44;38.20;34.40
24814;DHT22;12904;50.088;11.414;2022-08-04T12:38:51;39.80;32.80
24814;DHT22;12904;50.088;11.414;2022-08-04T12:41:24;40.50;31.30
24814;DHT22;12904;50.088;11.414;2022-08-04T12:43:53;41.20;30.40
24814;DHT22;12904;50.088;11.414;2022-08-04T12:46:24;41.40;30.00
24814;DHT22;12904;50.088;11.414;2022-08-04T12:48:51;41.30;31.00
24814;DHT22;12904;50.088;11.414;2022-08-04T12:51:26;41.60;30.70
24814;DHT22;12904;50.088;11.414;2022-08-04T12:53:52;41.80;30.60
24814;DHT22;12904;50.088;11.414;2022-08-04T12:56:26;42.10;29.80
24814;DHT22;12904;50.088;11.414;2022-08-04T12:58:54;40.90;29.50
24814;DHT22;12904;50.088;11.414;2022-08-04T13:01:25;39.60;31.10
24814;DHT22;12904;50.088;11.414;2022-08-04T13:03:52;38.50;32.30
24814;DHT22;12904;50.088;11.414;2022-08-04T13:06:25;38.30;33.70
24814;DHT22;12904;50.088;11.414;2022-08-04T13:08:52;38.30;32.80
24814;DHT22;12904;50.088;11.414;2022-08-04T13:11:21;38.50;33.70
24814;DHT22;12904;50.088;11.414;2022-08-04T13:13:53;39.00;32.40
24814;DHT22;12904;50.088;11.414;2022-08-04T13:16:31;39.70;32.30
24814;DHT22;12904;50.088;11.414;2022-08-04T13:18:58;40.20;30.70
24814;DHT22;12904;50.088;11.414;2022-08-04T13:21:26;40.50;30.70
24814;DHT22;12904;50.088;11.414;2022-08-04T13:24:01;40.80;31.60
24814;DHT22;12904;50.088;11.414;2022-08-04T13:26:28;41.10;30.50
24814;DHT22;12904;50.088;11.414;2022-08-04T13:28:58;41.40;30.00
24814;DHT22;12904;50.088;11.414;2022-08-04T13:31:27;41.70;30.50
24814;DHT22;12904;50.088;11.414;2022-08-04T13:34:01;41.70;30.10
24814;DHT22;12904;50.088;11.414;2022-08-04T13:36:28;41.30;29.50
24814;DHT22;12904;50.088;11.414;2022-08-04T13:38:57;40.60;29.70
24814;DHT22;12904;50.088;11.414;2022-08-04T13:41:26;40.20;31.40
24814;DHT22;12904;50.088;11.414;2022-08-04T13:43:58;40.20;31.10
24814;DHT22;12904;50.088;11.414;2022-08-04T13:46:52;40.00;30.90
24814;DHT22;12904;50.088;11.414;2022-08-04T13:49:19;40.20;31.00
24814;DHT22;12904;50.088;11.414;2022-08-04T13:52:01;40.50;31.00
24814;DHT22;12904;50.088;11.414;2022-08-04T13:54:39;41.00;30.40
24814;DHT22;12904;50.088;11.414;2022-08-04T13:57:20;41.20;30.00
24814;DHT22;12904;50.088;11.414;2022-08-04T13:59:55;41.40;30.00
24814;DHT22;12904;50.088;11.414;2022-08-04T14:05:42;41.40;29.80
24814;DHT22;12904;50.088;11.414;2022-08-04T14:08:22;40.30;29.90
24814;DHT22;12904;50.088;11.414;2022-08-04T14:10:55;39.60;30.00
24814;DHT22;12904;50.088;11.414;2022-08-04T14:13:34;39.60;31.90
24814;DHT22;12904;50.088;11.414;2022-08-04T14:16:00;39.80;31.30
24814;DHT22;12904;50.088;11.414;2022-08-04T14:18:30;39.60;30.60
24814;DHT22;12904;50.088;11.414;2022-08-04T14:26:26;38.90;31.30
24814;DHT22;12904;50.088;11.414;2022-08-04T14:28:53;38.50;31.50
24814;DHT22;12904;50.088;11.414;2022-08-04T14:31:23;38.20;32.10
24814;DHT22;12904;50.088;11.414;2022-08-04T14:33:51;38.30;32.40
24814;DHT22;12904;50.088;11.414;2022-08-04T14:36:17;38.60;32.10
24814;DHT22;12904;50.088;11.414;2022-08-04T14:38:53;38.50;31.80
24814;DHT22;12904;50.088;11.414;2022-08-04T14:41:27;38.20;31.60
24814;DHT22;12904;50.088;11.414;2022-08-04T14:43:58;37.60;31.90
24814;DHT22;12904;50.088;11.414;2022-08-04T14:46:25;37.40;32.80
24814;DHT22;12904;50.088;11.414;2022-08-04T14:49:11;37.20;33.80
24814;DHT22;12904;50.088;11.414;2022-08-04T14:52:03;37.30;33.10
24814;DHT22;12904;50.088;11.414;2022-08-04T14:54:33;37.60;34.10
24814;DHT22;12904;50.088;11.414;2022-08-04T14:57:04;37.50;34.60
24814;DHT22;12904;50.088;11.414;2022-08-04T14:59:47;37.50;33.80
24814;DHT22;12904;50.088;11.414;2022-08-04T15:02:14;37.30;33.00
24814;DHT22;12904;50.088;11.414;2022-08-04T15:04:42;37.50;34.10
24814;DHT22;12904;50.088;11.414;2022-08-04T15:07:08;37.70;34.50
24814;DHT22;12904;50.088;11.414;2022-08-04T15:09:35;38.00;33.80
24814;DHT22;12904;50.088;11.414;2022-08-04T15:12:01;38.30;33.20
24814;DHT22;12904;50.088;11.414;2022-08-04T15:14:29;38.60;33.60
24814;DHT22;12904;50.088;11.414;2022-08-04T15:16:55;38.90;32.70
24814;DHT22;12904;50.088;11.414;2022-08-04T15:19:21;39.00;32.40
24814;DHT22;12904;50.088;11.414;2022-08-04T15:21:48;39.10;31.80
24814;DHT22;12904;50.088;11.414;2022-08-04T15:24:14;39.20;31.40
24814;DHT22;12904;50.088;11.414;2022-08-04T15:26:51;39.30;31.40
24814;DHT22;12904;50.088;11.414;2022-08-04T15:29:31;39.30;31.70
24814;DHT22;12904;50.088;11.414;2022-08-04T15:32:03;39.40;31.10
24814;DHT22;12904;50.088;11.414;2022-08-04T15:34:51;39.40;31.50
24814;DHT22;12904;50.088;11.414;2022-08-04T15:38:23;38.60;31.60
24814;DHT22;12904;50.088;11.414;2022-08-04T15:41:02;38.40;31.70
24814;DHT22;12904;50.088;11.414;2022-08-04T15:45:53;37.30;32.90
24814;DHT22;12904;50.088;11.414;2022-08-04T15:53:26;37.00;34.20
24814;DHT22;12904;50.088;11.414;2022-08-04T15:55:53;36.90;34.40
24814;DHT22;12904;50.088;11.414;2022-08-04T15:58:20;36.80;34.00
24814;DHT22;12904;50.088;11.414;2022-08-04T16:21:58;36.60;35.10
24814;DHT22;12904;50.088;11.414;2022-08-04T16:24:38;36.70;33.90
24814;DHT22;12904;50.088;11.414;2022-08-04T16:27:05;36.80;34.60
24814;DHT22;12904;50.088;11.414;2022-08-04T16:32:23;36.80;33.30
24814;DHT22;12904;50.088;11.414;2022-08-04T16:35:04;36.80;33.20
24814;DHT22;12904;50.088;11.414;2022-08-04T16:37:42;36.70;34.10
24814;DHT22;12904;50.088;11.414;2022-08-04T16:40:32;36.60;34.10
24814;DHT22;12904;50.088;11.414;2022-08-04T16:43:19;36.40;34.00
24814;DHT22;12904;50.088;11.414;2022-08-04T16:45:53;36.30;33.90
24814;DHT22;12904;50.088;11.414;2022-08-04T16:48:25;36.20;34.00
24814;DHT22;12904;50.088;11.414;2022-08-04T16:51:10;36.20;34.40
24814;DHT22;12904;50.088;11.414;2022-08-04T16:53:43;36.10;34.40
24814;DHT22;12904;50.088;11.414;2022-08-04T16:56:10;36.10;34.70
24814;DHT22;12904;50.088;11.414;2022-08-04T16:58:36;36.00;35.30
24814;DHT22;12904;50.088;11.414;2022-08-04T17:01:07;35.90;34.50
24814;DHT22;12904;50.088;11.414;2022-08-04T17:03:37;35.90;34.90
24814;DHT22;12904;50.088;11.414;2022-08-04T17:06:04;35.80;35.40
24814;DHT22;12904;50.088;11.414;2022-08-04T17:08:31;35.70;35.70
24814;DHT22;12904;50.088;11.414;2022-08-04T17:10:58;35.60;35.70
24814;DHT22;12904;50.088;11.414;2022-08-04T17:13:25;35.60;35.80
24814;DHT22;12904;50.088;11.414;2022-08-04T17:15:56;35.50;35.50
24814;DHT22;12904;50.088;11.414;2022-08-04T17:18:26;35.40;35.90
24814;DHT22;12904;50.088;11.414;2022-08-04T17:20:54;35.30;35.70
24814;DHT22;12904;50.088;11.414;2022-08-04T17:25:57;34.90;36.60
24814;DHT22;12904;50.088;11.414;2022-08-04T17:28:23;34.70;36.90
24814;DHT22;12904;50.088;11.414;2022-08-04T17:30:49;34.70;37.40
24814;DHT22;12904;50.088;11.414;2022-08-04T17:33:16;34.60;37.60
24814;DHT22;12904;50.088;11.414;2022-08-04T17:35:43;34.50;38.40
24814;DHT22;12904;50.088;11.414;2022-08-04T17:38:09;34.40;38.20
24814;DHT22;12904;50.088;11.414;2022-08-04T17:40:52;34.30;38.50
24814;DHT22;12904;50.088;11.414;2022-08-04T17:46:40;34.10;37.80
24814;DHT22;12904;50.088;11.414;2022-08-04T17:54:20;33.70;39.90
24814;DHT22;12904;50.088;11.414;2022-08-04T17:56:55;33.60;39.70
24814;DHT22;12904;50.088;11.414;2022-08-04T18:07:10;33.10;39.70
24814;DHT22;12904;50.088;11.414;2022-08-04T18:09:56;33.00;39.90
24814;DHT22;12904;50.088;11.414;2022-08-04T18:12:33;32.90;40.30
24814;DHT22;12904;50.088;11.414;2022-08-04T18:15:20;32.80;40.40
24814;DHT22;12904;50.088;11.414;2022-08-04T18:17:47;32.60;40.90
24814;DHT22;12904;50.088;11.414;2022-08-04T18:20:17;32.60;41.20
24814;DHT22;12904;50.088;11.414;2022-08-04T18:22:47;32.40;41.40
24814;DHT22;12904;50.088;11.414;2022-08-04T18:25:16;32.30;42.00
24814;DHT22;12904;50.088;11.414;2022-08-04T18:27:52;32.20;41.80
24814;DHT22;12904;50.088;11.414;2022-08-04T18:30:23;32.10;42.10
24814;DHT22;12904;50.088;11.414;2022-08-04T18:32:50;31.90;42.00
24814;DHT22;12904;50.088;11.414;2022-08-04T18:35:18;31.80;43.00
24814;DHT22;12904;50.088;11.414;2022-08-04T18:37:44;31.70;42.80
24814;DHT22;12904;50.088;11.414;2022-08-04T18:40:10;31.60;42.70
24814;DHT22;12904;50.088;11.414;2022-08-04T18:42:38;31.40;44.00
24814;DHT22;12904;50.088;11.414;2022-08-04T18:45:04;31.30;43.90
24814;DHT22;12904;50.088;11.414;2022-08-04T18:47:30;31.20;44.70
24814;DHT22;12904;50.088;11.414;2022-08-04T18:49:57;31.00;45.10
24814;DHT22;12904;50.088;11.414;2022-08-04T18:52:23;30.80;46.00
24814;DHT22;12904;50.088;11.414;2022-08-04T18:54:48;30.70;46.60
24814;DHT22;12904;50.088;11.414;2022-08-04T18:57:21;30.50;47.80
24814;DHT22;12904;50.088;11.414;2022-08-04T18:59:47;30.30;47.80
24814;DHT22;12904;50.088;11.414;2022-08-04T19:02:14;30.10;48.20
24814;DHT22;12904;50.088;11.414;2022-08-04T19:04:40;29.90;48.30
24814;DHT22;12904;50.088;11.414;2022-08-04T19:07:06;29.80;48.60
24814;DHT22;12904;50.088;11.414;2022-08-04T19:09:32;29.60;48.50
24814;DHT22;12904;50.088;11.414;2022-08-04T19:11:58;29.50;49.30
24814;DHT22;12904;50.088;11.414;2022-08-04T19:14:24;29.40;48.90
24814;DHT22;12904;50.088;11.414;2022-08-04T19:16:49;29.30;48.20
24814;DHT22;12904;50.088;11.414;2022-08-04T19:19:15;29.20;48.10
24814;DHT22;12904;50.088;11.414;2022-08-04T19:21:43;29.10;48.10
24814;DHT22;12904;50.088;11.414;2022-08-04T19:24:09;29.10;48.30
24814;DHT22;12904;50.088;11.414;2022-08-04T19:26:36;29.00;48.60
24814;DHT22;12904;50.088;11.414;2022-08-04T19:29:02;28.90;49.10
24814;DHT22;12904;50.088;11.414;2022-08-04T19:31:28;28.80;49.40
24814;DHT22;12904;50.088;11.414;2022-08-04T19:33:54;28.70;49.40
24814;DHT22;12904;50.088;11.414;2022-08-04T19:36:22;28.60;50.80
24814;DHT22;12904;50.088;11.414;2022-08-04T19:38:48;28.50;51.00
24814;DHT22;12904;50.088;11.414;2022-08-04T19:41:14;28.30;52.60
24814;DHT22;12904;50.088;11.414;2022-08-04T19:43:41;28.20;52.70
24814;DHT22;12904;50.088;11.414;2022-08-04T19:46:07;28.00;53.20
24814;DHT22;12904;50.088;11.414;2022-08-04T19:48:35;27.90;53.60
24814;DHT22;12904;50.088;11.414;2022-08-04T19:51:01;27.70;53.60
24814;DHT22;12904;50.088;11.414;2022-08-04T19:53:26;27.50;54.20
24814;DHT22;12904;50.088;11.414;2022-08-04T19:55:52;27.40;54.20
24814;DHT22;12904;50.088;11.414;2022-08-04T19:58:18;27.30;54.50
24814;DHT22;12904;50.088;11.414;2022-08-04T20:00:46;27.20;55.50
24814;DHT22;12904;50.088;11.414;2022-08-04T20:03:12;27.00;55.20
24814;DHT22;12904;50.088;11.414;2022-08-04T20:05:40;26.90;55.10
24814;DHT22;12904;50.088;11.414;2022-08-04T20:08:06;26.80;55.60
24814;DHT22;12904;50.088;11.414;2022-08-04T20:10:32;26.60;56.50
24814;DHT22;12904;50.088;11.414;2022-08-04T20:12:58;26.50;57.30
24814;DHT22;12904;50.088;11.414;2022-08-04T20:15:24;26.30;56.90
24814;DHT22;12904;50.088;11.414;2022-08-04T20:17:50;26.10;57.30
24814;DHT22;12904;50.088;11.414;2022-08-04T20:20:16;26.00;57.90
24814;DHT22;12904;50.088;11.414;2022-08-04T20:22:41;25.80;57.90
24814;DHT22;12904;50.088;11.414;2022-08-04T20:25:07;25.70;58.10
24814;DHT22;12904;50.088;11.414;2022-08-04T20:27:33;25.60;58.60